sensor_id;sensor_type;location;lat;lon;timestamp;P1;durP1;ratioP1;P2;durP2;ratioP2
15151;SDS011;7676;50.900;6.234;2023-02-27T00:04:16;5.63;;;3.90;;
15151;SDS011;7676;50.900;6.234;2023-02-27T00:19:19;6.70;;;4.00;;
15151;SDS011;7676;50.900;6.234;2023-02-27T00:34:22;4.17;;;2.93;;
15151;SDS011;7676;50.900;6.234;2023-02-27T00:49:27;3.73;;;2.83;;
15151;SDS011;7676;50.900;6.234;2023-02-27T01:04:29;4.13;;;3.33;;
15151;SDS011;7676;50.900;6.234;2023-02-27T01:19:31;4.17;;;3.33;;
15151;SDS011;7676;50.900;6.234;2023-02-27T01:34:34;6.17;;;4.20;;
15151;SDS011;7676;50.900;6.234;2023-02-27T01:49:37;5.10;;;3.90;;
15151;SDS011;7676;50.900;6.234;2023-02-27T02:04:40;5.50;;;4.13;;
15151;SDS011;7676;50.900;6.234;2023-02-27T02:51:01;7.00;;;4.70;;
15151;SDS011;7676;50.900;6.234;2023-02-27T03:06:18;5.67;;;4.70;;
15151;SDS011;7676;50.900;6.234;2023-02-27T03:21:40;6.47;;;5.00;;
15151;SDS011;7676;50.900;6.234;2023-02-27T03:37:05;6.53;;;5.63;;
15151;SDS011;7676;50.900;6.234;2023-02-27T03:52:23;6.47;;;5.20;;
15151;SDS011;7676;50.900;6.234;2023-02-27T04:07:29;6.17;;;5.57;;
15151;SDS011;7676;50.900;6.234;2023-02-27T04:22:43;8.73;;;7.80;;
15151;SDS011;7676;50.900;6.234;2023-02-27T04:38:00;8.57;;;6.30;;
15151;SDS011;7676;50.900;6.234;2023-02-27T04:53:13;10.80;;;9.43;;
15151;SDS011;7676;50.900;6.234;2023-02-27T05:23:51;7.23;;;6.43;;
15151;SDS011;7676;50.900;6.234;2023-02-27T05:39:04;8.50;;;7.60;;
15151;SDS011;7676;50.900;6.234;2023-02-27T05:54:12;16.33;;;14.63;;
15151;SDS011;7676;50.900;6.234;2023-02-27T06:09:27;9.17;;;7.60;;
15151;SDS011;7676;50.900;6.234;2023-02-27T06:24:29;8.77;;;6.80;;
15151;SDS011;7676;50.900;6.234;2023-02-27T06:39:32;9.87;;;6.67;;
15151;SDS011;7676;50.900;6.234;2023-02-27T06:54:34;8.27;;;7.47;;
15151;SDS011;7676;50.900;6.234;2023-02-27T07:09:36;8.47;;;7.03;;
15151;SDS011;7676;50.900;6.234;2023-02-27T07:24:39;7.87;;;7.13;;
15151;SDS011;7676;50.900;6.234;2023-02-27T07:39:42;8.27;;;7.47;;
15151;SDS011;7676;50.900;6.234;2023-02-27T07:54:45;7.17;;;6.47;;
15151;SDS011;7676;50.900;6.234;2023-02-27T08:09:48;8.70;;;7.57;;
15151;SDS011;7676;50.900;6.234;2023-02-27T08:24:50;7.90;;;7.10;;
15151;SDS011;7676;50.900;6.234;2023-02-27T08:39:53;7.87;;;6.50;;
15151;SDS011;7676;50.900;6.234;2023-02-27T08:54:55;7.83;;;6.23;;
15151;SDS011;7676;50.900;6.234;2023-02-27T09:09:58;14.53;;;12.27;;
15151;SDS011;7676;50.900;6.234;2023-02-27T09:25:01;5.93;;;5.43;;
15151;SDS011;7676;50.900;6.234;2023-02-27T09:40:04;6.83;;;5.17;;
15151;SDS011;7676;50.900;6.234;2023-02-27T09:55:12;7.00;;;6.30;;
15151;SDS011;7676;50.900;6.234;2023-02-27T10:25:32;4.80;;;3.70;;
15151;SDS011;7676;50.900;6.234;2023-02-27T10:40:40;4.80;;;3.70;;
15151;SDS011;7676;50.900;6.234;2023-02-27T10:55:46;4.70;;;3.50;;
15151;SDS011;7676;50.900;6.234;2023-02-27T11:11:03;5.70;;;4.10;;
15151;SDS011;7676;50.900;6.234;2023-02-27T11:26:08;4.83;;;3.80;;
15151;SDS011;7676;50.900;6.234;2023-02-27T11:41:16;5.37;;;3.73;;
15151;SDS011;7676;50.900;6.234;2023-02-27T11:56:22;4.60;;;3.70;;
15151;SDS011;7676;50.900;6.234;2023-02-27T12:11:37;4.70;;;3.13;;
15151;SDS011;7676;50.900;6.234;2023-02-27T12:26:45;5.10;;;2.40;;
15151;SDS011;7676;50.900;6.234;2023-02-27T13:27:29;3.63;;;1.90;;
15151;SDS011;7676;50.900;6.234;2023-02-27T13:57:36;3.50;;;1.90;;
15151;SDS011;7676;50.900;6.234;2023-02-27T14:12:40;3.37;;;2.00;;
15151;SDS011;7676;50.900;6.234;2023-02-27T14:27:48;2.53;;;1.67;;
15151;SDS011;7676;50.900;6.234;2023-02-27T14:42:58;2.67;;;1.63;;
15151;SDS011;7676;50.900;6.234;2023-02-27T14:58:23;2.47;;;1.50;;
15151;SDS011;7676;50.900;6.234;2023-02-27T15:13:27;1.77;;;1.27;;
15151;SDS011;7676;50.900;6.234;2023-02-27T15:28:36;3.57;;;1.60;;
15151;SDS011;7676;50.900;6.234;2023-02-27T15:43:39;2.63;;;2.10;;
15151;SDS011;7676;50.900;6.234;2023-02-27T15:58:48;5.33;;;2.47;;
15151;SDS011;7676;50.900;6.234;2023-02-27T16:13:55;3.07;;;2.33;;
15151;SDS011;7676;50.900;6.234;2023-02-27T16:28:59;3.13;;;2.07;;
15151;SDS011;7676;50.900;6.234;2023-02-27T16:44:04;4.43;;;2.37;;
15151;SDS011;7676;50.900;6.234;2023-02-27T16:59:08;6.23;;;4.70;;
15151;SDS011;7676;50.900;6.234;2023-02-27T17:14:26;5.67;;;3.60;;
15151;SDS011;7676;50.900;6.234;2023-02-27T17:29:28;6.03;;;4.70;;
15151;SDS011;7676;50.900;6.234;2023-02-27T17:44:31;7.60;;;5.33;;
15151;SDS011;7676;50.900;6.234;2023-02-27T17:59:33;8.07;;;5.67;;
15151;SDS011;7676;50.900;6.234;2023-02-27T18:14:36;6.53;;;3.57;;
15151;SDS011;7676;50.900;6.234;2023-02-27T18:29:39;6.50;;;3.83;;
15151;SDS011;7676;50.900;6.234;2023-02-27T18:44:41;3.73;;;3.30;;
15151;SDS011;7676;50.900;6.234;2023-02-27T18:59:45;4.57;;;3.30;;
15151;SDS011;7676;50.900;6.234;2023-02-27T19:14:48;11.90;;;10.60;;
15151;SDS011;7676;50.900;6.234;2023-02-27T19:29:50;4.57;;;3.60;;
15151;SDS011;7676;50.900;6.234;2023-02-27T19:44:53;4.53;;;4.13;;
15151;SDS011;7676;50.900;6.234;2023-02-27T19:59:55;6.00;;;5.00;;
15151;SDS011;7676;50.900;6.234;2023-02-27T20:14:58;6.67;;;4.80;;
15151;SDS011;7676;50.900;6.234;2023-02-27T20:30:08;6.93;;;4.53;;
15151;SDS011;7676;50.900;6.234;2023-02-27T20:45:11;7.23;;;5.23;;
15151;SDS011;7676;50.900;6.234;2023-02-27T21:00:14;5.93;;;4.90;;
15151;SDS011;7676;50.900;6.234;2023-02-27T21:15:16;18.43;;;12.97;;
15151;SDS011;7676;50.900;6.234;2023-02-27T21:30:19;6.87;;;6.17;;
15151;SDS011;7676;50.900;6.234;2023-02-27T21:45:21;15.17;;;13.67;;
15151;SDS011;7676;50.900;6.234;2023-02-27T22:00:23;24.70;;;21.57;;
15151;SDS011;7676;50.900;6.234;2023-02-27T22:15:29;19.97;;;16.30;;
15151;SDS011;7676;50.900;6.234;2023-02-27T22:30:31;11.13;;;8.50;;
15151;SDS011;7676;50.900;6.234;2023-02-27T22:45:34;6.00;;;4.60;;
15151;SDS011;7676;50.900;6.234;2023-02-27T23:00:36;7.30;;;4.60;;
15151;SDS011;7676;50.900;6.234;2023-02-27T23:15:39;4.07;;;3.53;;
15151;SDS011;7676;50.900;6.234;2023-02-27T23:30:41;4.50;;;3.70;;
15151;SDS011;7676;50.900;6.234;2023-02-27T23:45:44;5.23;;;3.67;;
